Time;durP1;ratioP1;P1;durP2;ratioP2;P2;SDS_P1;SDS_P2;PMS_P1;PMS_P2;Temp;Humidity;BMP_temperature;BMP_pressure;BME280_temperature;BME280_humidity;BME280_pressure;Samples;Min_cycle;Max_cycle;Signal;HPM_P1;HPM_P2
2022/09/15 00:00:48;;;;;;;7.20;2.70;;;;;;;12.92;87.39;99718.26;107828;1277;63193;-79
2022/09/15 00:03:15;;;;;;;8.20;3.00;;;;;;;12.89;87.82;99718.56;107712;1278;60594;-79
2022/09/15 00:05:43;;;;;;;6.00;2.80;;;;;;;12.85;88.03;99716.05;107866;1277;75970;-79
2022/09/15 00:08:11;;;;;;;11.10;3.20;;;;;;;12.83;88.37;99711.23;107896;1277;72545;-79
2022/09/15 00:10:47;;;;;;;7.00;3.10;;;;;;;12.79;88.77;99707.81;108029;1276;74226;-79
2022/09/15 00:13:14;;;;;;;9.10;3.80;;;;;;;12.76;89.21;99710.90;107601;1279;63494;-79
2022/09/15 00:15:41;;;;;;;6.60;3.60;;;;;;;12.74;89.39;99716.92;107659;1278;61683;-79
2022/09/15 00:18:08;;;;;;;7.80;3.90;;;;;;;12.73;89.65;99712.60;107843;1277;76471;-79
2022/09/15 00:20:39;;;;;;;11.30;4.40;;;;;;;12.71;89.89;99711.41;107715;1277;71168;-79
2022/09/15 00:23:06;;;;;;;10.80;3.70;;;;;;;12.70;90.00;99708.60;107694;1277;74972;-79
2022/09/15 00:25:33;;;;;;;8.50;4.00;;;;;;;12.69;90.14;99710.52;107764;1277;62386;-79
2022/09/15 00:28:00;;;;;;;9.00;4.20;;;;;;;12.69;90.25;99707.37;107697;1278;60336;-79
2022/09/15 00:30:27;;;;;;;8.80;4.30;;;;;;;12.68;90.54;99708.95;107612;1278;74306;-79
2022/09/15 00:32:54;;;;;;;10.30;4.80;;;;;;;12.66;91.01;99707.77;107828;1277;71248;-79
2022/09/15 00:35:21;;;;;;;9.00;4.90;;;;;;;12.63;91.74;99709.81;107868;1277;74056;-79
2022/09/15 00:37:47;;;;;;;9.80;5.00;;;;;;;12.62;91.64;99707.40;107591;1278;62477;-79
2022/09/15 00:40:14;;;;;;;11.50;5.20;;;;;;;12.59;92.20;99708.08;107993;1276;60548;-79
2022/09/15 00:42:41;;;;;;;10.60;5.40;;;;;;;12.59;92.59;99713.70;107983;1276;77449;-79
2022/09/15 00:45:14;;;;;;;12.00;5.80;;;;;;;12.58;92.26;99716.07;107838;1277;71295;-79
2022/09/15 00:47:42;;;;;;;10.10;5.30;;;;;;;12.57;92.48;99717.95;108006;1277;74313;-79
2022/09/15 00:50:13;;;;;;;10.60;5.60;;;;;;;12.56;92.77;99715.80;107709;1277;62012;-79
2022/09/15 00:52:46;;;;;;;9.60;5.40;;;;;;;12.56;92.62;99713.17;107987;1274;60523;-79
2022/09/15 00:55:21;;;;;;;11.10;5.80;;;;;;;12.56;92.98;99711.45;107730;1277;76003;-79
2022/09/15 00:57:51;;;;;;;12.40;5.60;;;;;;;12.55;92.88;99711.90;107943;1277;71119;-79
2022/09/15 01:00:21;;;;;;;11.80;5.50;;;;;;;12.55;92.77;99710.67;107999;1277;73221;-79
2022/09/15 01:02:49;;;;;;;11.20;5.60;;;;;;;12.54;92.57;99713.67;107864;1277;61229;-79
2022/09/15 01:05:18;;;;;;;17.10;5.50;;;;;;;12.53;92.37;99716.52;107716;1278;61067;-79
2022/09/15 01:07:52;;;;;;;10.70;5.90;;;;;;;12.50;92.43;99721.46;107696;1276;74868;-79
2022/09/15 01:10:29;;;;;;;9.70;5.20;;;;;;;12.50;92.69;99723.64;107941;1277;71697;-79
2022/09/15 01:12:58;;;;;;;12.30;5.50;;;;;;;12.49;92.53;99721.10;108013;1276;73249;-78
2022/09/15 01:15:33;;;;;;;11.90;5.90;;;;;;;12.48;92.53;99718.90;107967;1277;62591;-79
2022/09/15 01:18:09;;;;;;;12.40;5.40;;;;;;;12.48;92.38;99721.81;107793;1278;61692;-79
2022/09/15 01:20:44;;;;;;;11.30;5.80;;;;;;;12.46;92.11;99724.11;107979;1277;74849;-79
2022/09/15 01:23:26;;;;;;;10.80;5.70;;;;;;;12.44;92.30;99726.15;107857;1277;72214;-79
2022/09/15 01:26:50;;;;;;;9.80;6.20;;;;;;;12.40;92.47;99723.02;107690;1278;73067;-79
2022/09/15 01:29:42;;;;;;;12.00;5.80;;;;;;;12.36;92.59;99728.41;106926;1285;62581;-79
2022/09/15 01:35:14;;;;;;;13.00;5.80;;;;;;;12.30;93.17;99733.61;107689;1278;76040;-78
2022/09/15 01:37:48;;;;;;;13.40;6.10;;;;;;;12.28;92.96;99735.05;107638;1279;72727;-78
2022/09/15 01:40:17;;;;;;;9.20;5.70;;;;;;;12.28;93.05;99732.85;107855;1277;73731;-78
2022/09/15 01:42:46;;;;;;;12.40;6.10;;;;;;;12.27;93.04;99737.02;107847;1277;62382;-79
2022/09/15 01:45:25;;;;;;;14.70;6.10;;;;;;;12.25;92.92;99737.11;107819;1277;59820;-78
2022/09/15 01:47:54;;;;;;;10.90;6.30;;;;;;;12.22;93.12;99740.71;107845;1277;76229;-77
2022/09/15 01:50:25;;;;;;;13.90;6.40;;;;;;;12.19;93.29;99731.36;107813;1276;71146;-77
2022/09/15 01:52:56;;;;;;;12.70;6.40;;;;;;;12.16;93.35;99728.16;107865;1277;75639;-78
2022/09/15 01:55:29;;;;;;;12.10;6.10;;;;;;;12.13;93.46;99726.66;107969;1277;61066;-78
2022/09/15 01:57:57;;;;;;;13.00;6.30;;;;;;;12.10;93.26;99728.52;107563;1277;61510;-78
2022/09/15 02:00:24;;;;;;;13.10;5.70;;;;;;;12.07;93.52;99726.45;107847;1278;75775;-78
2022/09/15 02:03:00;;;;;;;12.70;6.60;;;;;;;12.05;93.59;99727.02;107922;1277;71666;-78
2022/09/15 02:05:33;;;;;;;9.90;5.60;;;;;;;12.04;93.63;99724.20;107866;1277;73311;-78
2022/09/15 02:08:05;;;;;;;14.90;6.20;;;;;;;12.03;93.67;99724.23;107796;1277;62256;-78
2022/09/15 02:10:52;;;;;;;12.60;6.00;;;;;;;12.01;93.59;99728.25;108068;1277;61263;-78
2022/09/15 02:13:47;;;;;;;11.30;6.10;;;;;;;12.00;93.48;99729.15;107943;1277;75864;-78
2022/09/15 02:16:20;;;;;;;11.30;5.70;;;;;;;11.98;93.38;99730.63;107813;1278;72443;-78
2022/09/15 02:18:53;;;;;;;12.00;6.40;;;;;;;11.97;93.37;99729.08;107586;1280;74348;-77
2022/09/15 02:21:28;;;;;;;14.50;6.20;;;;;;;11.94;93.68;99727.04;107967;1276;62166;-78
2022/09/15 02:24:02;;;;;;;14.20;6.10;;;;;;;11.89;93.55;99725.65;107868;1277;61077;-77
2022/09/15 02:26:32;;;;;;;11.30;6.30;;;;;;;11.85;93.66;99725.19;107644;1277;76235;-77
2022/09/15 02:29:04;;;;;;;11.40;5.70;;;;;;;11.80;94.02;99728.38;107407;1278;72276;-77
2022/09/15 02:31:33;;;;;;;13.20;6.20;;;;;;;11.78;94.22;99725.04;107711;1277;72923;-78
2022/09/15 02:34:06;;;;;;;11.60;6.10;;;;;;;11.75;94.33;99722.95;107990;1277;62060;-78
2022/09/15 02:36:33;;;;;;;12.70;6.70;;;;;;;11.72;94.88;99725.98;107658;1278;60658;-78
2022/09/15 02:39:06;;;;;;;12.50;7.00;;;;;;;11.70;95.05;99719.88;107976;1277;75987;-78
2022/09/15 02:41:35;;;;;;;12.90;6.80;;;;;;;11.67;95.03;99725.94;107914;1277;72970;-78
2022/09/15 02:44:02;;;;;;;12.00;6.90;;;;;;;11.65;95.32;99724.97;107865;1277;73128;-78
2022/09/15 02:46:29;;;;;;;13.90;6.90;;;;;;;11.63;95.36;99723.79;107988;1276;62064;-78
2022/09/15 02:48:56;;;;;;;11.50;7.10;;;;;;;11.61;95.36;99721.91;108017;1277;60281;-78
2022/09/15 02:51:23;;;;;;;11.30;6.80;;;;;;;11.60;95.80;99723.99;107570;1278;74710;-77
2022/09/15 02:53:49;;;;;;;12.90;7.90;;;;;;;11.59;95.76;99720.30;107810;1278;71450;-78
2022/09/15 02:56:17;;;;;;;14.40;7.20;;;;;;;11.58;95.79;99721.61;107906;1277;74020;-78
2022/09/15 02:58:43;;;;;;;15.50;7.50;;;;;;;11.59;95.65;99723.87;107566;1278;63549;-78
2022/09/15 03:01:16;;;;;;;14.30;7.20;;;;;;;11.59;95.60;99722.76;107769;1277;60099;-78
2022/09/15 03:03:44;;;;;;;13.20;7.60;;;;;;;11.58;95.59;99722.69;107826;1276;75722;-78
2022/09/15 03:06:16;;;;;;;14.10;7.70;;;;;;;11.57;95.38;99719.13;108042;1277;72734;-77
2022/09/15 03:08:52;;;;;;;14.50;7.60;;;;;;;11.55;95.72;99720.27;107876;1277;71587;-78
2022/09/15 03:11:21;;;;;;;11.70;7.80;;;;;;;11.53;95.41;99717.54;107719;1278;62177;-78
2022/09/15 03:13:53;;;;;;;12.70;7.60;;;;;;;11.52;95.41;99714.56;107478;1278;60925;-78
2022/09/15 03:16:20;;;;;;;14.70;8.80;;;;;;;11.50;95.51;99716.32;107846;1277;75013;-78
2022/09/15 03:18:47;;;;;;;15.00;8.20;;;;;;;11.49;95.54;99717.02;107822;1277;72695;-78
2022/09/15 03:21:17;;;;;;;12.30;8.70;;;;;;;11.47;95.23;99721.91;107789;1277;73094;-78
2022/09/15 03:23:44;;;;;;;12.90;8.70;;;;;;;11.44;95.47;99720.48;107750;1277;63458;-78
2022/09/15 03:26:11;;;;;;;12.90;8.70;;;;;;;11.41;95.47;99718.23;107831;1277;60510;-78
2022/09/15 03:28:39;;;;;;;15.30;8.80;;;;;;;11.39;95.81;99720.48;107793;1277;74866;-78
2022/09/15 03:31:07;;;;;;;15.00;9.20;;;;;;;11.37;95.88;99724.23;108015;1277;71491;-78
2022/09/15 03:33:34;;;;;;;16.00;9.30;;;;;;;11.35;96.08;99726.27;107616;1278;72883;-79
2022/09/15 03:36:05;;;;;;;14.90;10.10;;;;;;;11.35;96.18;99719.42;107969;1277;63130;-78
2022/09/15 03:38:32;;;;;;;18.70;10.20;;;;;;;11.36;96.55;99722.23;107729;1278;61339;-78
2022/09/15 03:41:08;;;;;;;14.90;9.70;;;;;;;11.37;96.04;99722.16;107722;1279;75834;-78
2022/09/15 03:43:36;;;;;;;19.50;10.50;;;;;;;11.38;96.26;99720.77;107793;1278;72844;-78
2022/09/15 03:46:07;;;;;;;17.40;10.00;;;;;;;11.39;96.33;99726.57;107512;1278;74136;-78
2022/09/15 03:48:35;;;;;;;19.90;11.20;;;;;;;11.41;96.15;99723.58;107962;1277;61341;-78
2022/09/15 03:51:05;;;;;;;16.20;10.50;;;;;;;11.43;96.16;99723.79;107653;1278;60311;-78
2022/09/15 03:53:37;;;;;;;17.10;10.60;;;;;;;11.45;96.05;99721.50;107983;1277;76008;-78
2022/09/15 03:56:13;;;;;;;16.10;10.30;;;;;;;11.46;95.84;99714.23;107606;1279;71442;-78
2022/09/15 03:58:39;;;;;;;16.90;10.80;;;;;;;11.47;95.52;99716.27;107830;1277;72694;-78
2022/09/15 04:01:07;;;;;;;16.20;10.40;;;;;;;11.46;95.34;99712.14;108001;1277;62075;-78
2022/09/15 04:03:34;;;;;;;15.90;10.30;;;;;;;11.46;95.19;99716.39;107990;1276;60591;-78
2022/09/15 04:06:08;;;;;;;16.70;10.80;;;;;;;11.45;95.14;99718.84;107758;1277;74983;-78
2022/09/15 04:08:36;;;;;;;16.40;10.20;;;;;;;11.43;95.16;99720.64;107810;1277;72823;-78
2022/09/15 04:11:06;;;;;;;17.80;11.60;;;;;;;11.40;95.30;99719.09;107809;1280;72876;-78
2022/09/15 04:13:34;;;;;;;17.50;11.40;;;;;;;11.39;95.42;99718.52;107777;1278;61317;-78
2022/09/15 04:16:04;;;;;;;17.40;10.30;;;;;;;11.38;95.46;99718.39;107822;1277;60556;-78
2022/09/15 04:18:32;;;;;;;17.50;11.10;;;;;;;11.36;95.34;99717.02;107684;1278;75739;-78
2022/09/15 04:21:00;;;;;;;19.80;11.60;;;;;;;11.34;95.08;99719.29;107806;1278;71254;-78
2022/09/15 04:23:27;;;;;;;17.80;10.80;;;;;;;11.34;95.29;99716.19;107996;1277;74511;-78
2022/09/15 04:25:59;;;;;;;18.60;10.80;;;;;;;11.33;95.24;99715.20;107995;1277;63428;-78
2022/09/15 04:28:28;;;;;;;19.50;10.80;;;;;;;11.33;95.35;99718.60;107654;1279;59333;-78
2022/09/15 04:31:05;;;;;;;16.70;10.80;;;;;;;11.34;95.35;99715.65;107597;1277;74874;-78
2022/09/15 04:33:32;;;;;;;18.10;10.60;;;;;;;11.33;95.32;99720.14;107850;1278;71522;-78
2022/09/15 04:36:07;;;;;;;15.40;10.40;;;;;;;11.33;95.02;99722.73;108028;1277;73528;-78
2022/09/15 04:38:34;;;;;;;19.70;10.80;;;;;;;11.32;95.27;99721.01;107684;1277;62108;-78
2022/09/15 04:41:04;;;;;;;16.40;10.00;;;;;;;11.31;95.18;99721.87;107741;1279;61537;-78
2022/09/15 04:43:32;;;;;;;16.20;10.20;;;;;;;11.32;95.34;99720.02;108035;1277;74789;-78
2022/09/15 04:46:00;;;;;;;16.40;9.90;;;;;;;11.33;95.24;99721.38;107800;1277;71674;-79
2022/09/15 04:48:27;;;;;;;17.00;10.60;;;;;;;11.36;95.44;99725.27;107651;1278;72794;-79
2022/09/15 04:50:59;;;;;;;17.10;10.50;;;;;;;11.40;95.52;99721.55;107722;1276;63437;-79
2022/09/15 04:53:26;;;;;;;17.60;9.60;;;;;;;11.46;95.90;99724.73;107839;1277;61614;-79
2022/09/15 04:55:59;;;;;;;15.40;8.50;;;;;;;11.52;95.82;99726.32;107741;1278;74975;-79
2022/09/15 04:58:26;;;;;;;14.80;8.80;;;;;;;11.60;95.77;99731.67;107819;1278;71667;-79
2022/09/15 05:00:53;;;;;;;13.00;8.20;;;;;;;11.67;95.65;99729.17;107825;1277;72705;-79
2022/09/15 05:03:20;;;;;;;16.80;8.80;;;;;;;11.74;95.70;99732.97;107877;1278;62195;-79
2022/09/15 05:05:47;;;;;;;15.30;7.70;;;;;;;11.82;95.33;99732.05;108046;1277;60305;-79
2022/09/15 05:08:14;;;;;;;13.90;7.30;;;;;;;11.89;95.22;99730.27;107897;1278;75451;-79
2022/09/15 05:10:41;;;;;;;13.20;7.30;;;;;;;11.94;95.27;99735.59;107728;1278;71214;-79
2022/09/15 05:13:08;;;;;;;12.30;7.00;;;;;;;12.00;95.38;99730.17;108077;1277;73805;-79
2022/09/15 05:15:35;;;;;;;11.60;6.50;;;;;;;12.07;95.56;99730.65;107887;1277;62761;-79
2022/09/15 05:18:02;;;;;;;10.30;6.40;;;;;;;12.15;95.55;99732.91;107553;1279;61728;-79
2022/09/15 05:20:29;;;;;;;11.10;5.60;;;;;;;12.22;95.54;99740.64;107492;1278;76439;-79
2022/09/15 05:22:56;;;;;;;8.70;5.50;;;;;;;12.29;95.38;99738.77;108087;1277;72126;-79
2022/09/15 05:25:23;;;;;;;13.90;5.80;;;;;;;12.36;95.19;99737.61;107848;1276;73554;-79
2022/09/15 05:27:50;;;;;;;12.40;5.60;;;;;;;12.44;95.22;99737.41;108076;1277;63608;-79
2022/09/15 05:30:17;;;;;;;9.70;5.20;;;;;;;12.50;94.91;99734.94;107824;1277;62140;-79
2022/09/15 05:33:04;;;;;;;10.90;5.20;;;;;;;12.55;94.75;99733.32;107563;1279;74930;-79
2022/09/15 05:35:31;;;;;;;10.30;4.90;;;;;;;12.59;94.64;99735.02;108051;1277;71458;-79
2022/09/15 05:37:58;;;;;;;9.30;4.50;;;;;;;12.64;94.55;99739.74;108046;1277;73990;-83
2022/09/15 05:40:25;;;;;;;12.10;4.90;;;;;;;12.68;94.56;99738.34;107299;1277;62166;-83
2022/09/15 05:42:51;;;;;;;10.40;4.60;;;;;;;12.74;94.33;99736.25;107449;1279;61142;-82
2022/09/15 05:45:19;;;;;;;7.90;4.80;;;;;;;12.81;93.93;99737.69;107685;1276;74298;-83
2022/09/15 05:47:46;;;;;;;22.00;12.80;;;;;;;12.87;93.70;99744.00;108122;1277;72787;-83
2022/09/15 05:50:13;;;;;;;11.40;6.20;;;;;;;12.93;93.70;99740.86;108020;1277;72717;-83
2022/09/15 05:52:40;;;;;;;14.60;8.10;;;;;;;12.98;93.37;99744.48;108178;1276;62234;-83
2022/09/15 05:55:08;;;;;;;8.00;4.20;;;;;;;13.04;93.46;99738.25;108024;1277;59581;-83
2022/09/15 05:57:34;;;;;;;9.60;6.00;;;;;;;13.09;93.20;99740.65;108078;1277;75388;-84
2022/09/15 06:00:03;;;;;;;7.20;4.40;;;;;;;13.13;92.92;99741.30;108235;1277;70949;-83
2022/09/15 06:02:30;;;;;;;9.50;4.40;;;;;;;13.16;92.73;99746.38;108229;1277;73159;-83
2022/09/15 06:04:57;;;;;;;6.80;4.10;;;;;;;13.18;92.39;99752.24;108015;1277;63479;-82
2022/09/15 06:07:24;;;;;;;7.30;4.10;;;;;;;13.18;92.43;99750.70;108211;1277;60036;-82
2022/09/15 06:09:51;;;;;;;7.80;4.30;;;;;;;13.20;92.53;99748.65;108039;1277;74099;-82
2022/09/15 06:12:18;;;;;;;10.20;4.30;;;;;;;13.25;92.14;99748.81;108087;1277;69837;-83
2022/09/15 06:14:49;;;;;;;8.30;3.80;;;;;;;13.31;92.20;99747.04;108221;1277;73258;-84
2022/09/15 06:17:16;;;;;;;8.80;4.20;;;;;;;13.32;91.84;99753.02;108224;1277;62139;-84
2022/09/15 06:19:43;;;;;;;7.50;3.90;;;;;;;13.33;91.52;99747.88;108231;1276;60632;-83
2022/09/15 06:22:10;;;;;;;10.20;4.30;;;;;;;13.38;91.47;99756.08;108236;1277;74615;-83
2022/09/15 06:24:37;;;;;;;9.00;4.00;;;;;;;13.42;91.61;99756.95;107926;1278;70971;-83
2022/09/15 06:27:04;;;;;;;8.10;3.70;;;;;;;13.47;91.19;99757.70;107933;1277;74237;-83
2022/09/15 06:29:31;;;;;;;8.10;3.70;;;;;;;13.53;91.18;99756.67;108017;1277;61632;-83
2022/09/15 06:32:01;;;;;;;8.10;4.00;;;;;;;13.56;90.58;99756.86;108232;1276;59582;-83
2022/09/15 06:34:28;;;;;;;7.80;3.60;;;;;;;13.57;90.35;99753.55;106794;1277;1776794;-83
2022/09/15 06:36:55;;;;;;;10.20;3.80;;;;;;;13.57;90.62;99759.09;108086;1277;59289;-83
2022/09/15 06:39:22;;;;;;;8.10;3.60;;;;;;;13.60;90.70;99762.30;107922;1278;74373;-82
2022/09/15 06:41:49;;;;;;;7.20;3.40;;;;;;;13.61;90.74;99762.88;107924;1277;64084;-83
2022/09/15 06:44:28;;;;;;;9.90;3.50;;;;;;;13.60;90.90;99763.45;108231;1276;61400;-83
2022/09/15 06:46:55;;;;;;;6.40;3.60;;;;;;;13.63;90.83;99761.19;108287;1277;75264;-83
2022/09/15 06:49:22;;;;;;;9.10;3.90;;;;;;;13.68;90.79;99762.86;108278;1277;71444;-83
2022/09/15 06:51:49;;;;;;;8.90;3.60;;;;;;;13.75;90.57;99763.23;107865;1280;72819;-83
2022/09/15 06:54:16;;;;;;;5.70;2.90;;;;;;;13.83;90.30;99764.65;108197;1277;62933;-83
2022/09/15 06:56:43;;;;;;;7.10;3.30;;;;;;;13.86;90.12;99765.98;108050;1277;61719;-84
2022/09/15 06:59:11;;;;;;;7.90;3.30;;;;;;;13.94;89.72;99766.68;108042;1277;75080;-83
2022/09/15 07:01:38;;;;;;;8.10;3.40;;;;;;;13.97;89.58;99772.40;107773;1281;71585;-83
2022/09/15 07:04:08;;;;;;;5.60;2.90;;;;;;;13.99;89.18;99775.48;107762;1281;73501;-83
2022/09/15 07:06:37;;;;;;;7.00;3.20;;;;;;;14.01;89.24;99776.45;108061;1277;63230;-83
2022/09/15 07:09:05;;;;;;;7.50;3.20;;;;;;;14.10;89.18;99779.55;107897;1279;60326;-83
2022/09/15 07:11:32;;;;;;;5.90;2.90;;;;;;;14.15;88.69;99778.70;108253;1276;74870;-83
2022/09/15 07:13:59;;;;;;;6.10;3.00;;;;;;;14.22;88.41;99779.81;108185;1276;72440;-83
2022/09/15 07:16:25;;;;;;;6.70;3.00;;;;;;;14.29;88.17;99775.98;108031;1277;72807;-83
2022/09/15 07:18:59;;;;;;;9.30;3.00;;;;;;;14.37;87.64;99775.27;107987;1277;62093;-83
2022/09/15 07:21:26;;;;;;;7.40;3.30;;;;;;;14.41;87.29;99776.58;107937;1276;61372;-82
2022/09/15 07:23:55;;;;;;;7.60;2.90;;;;;;;14.43;86.73;99780.10;107998;1277;76076;-83
2022/09/15 07:26:24;;;;;;;5.10;2.50;;;;;;;14.45;86.47;99774.23;107766;1279;70296;-83
2022/09/15 07:28:57;;;;;;;5.60;2.60;;;;;;;14.50;86.36;99777.75;108049;1278;74131;-83
2022/09/15 07:31:26;;;;;;;6.80;2.60;;;;;;;14.59;86.18;99780.92;108041;1277;63009;-83
2022/09/15 07:33:52;;;;;;;7.00;2.80;;;;;;;14.67;85.59;99784.20;108105;1277;60644;-83
2022/09/15 07:36:20;;;;;;;7.70;2.70;;;;;;;14.75;85.22;99783.11;108057;1277;76274;-83
2022/09/15 07:38:48;;;;;;;5.70;2.40;;;;;;;14.87;84.83;99786.61;108331;1277;72159;-83
2022/09/15 07:41:17;;;;;;;6.20;2.60;;;;;;;14.91;83.64;99784.52;108249;1277;72383;-83
2022/09/15 07:43:49;;;;;;;5.20;2.40;;;;;;;14.95;83.31;99782.86;108269;1277;61365;-84
2022/09/15 07:46:17;;;;;;;6.60;2.40;;;;;;;15.00;83.56;99791.50;108052;1277;61579;-84
2022/09/15 07:48:44;;;;;;;6.80;2.30;;;;;;;15.03;83.14;99790.70;108058;1277;74837;-83
2022/09/15 07:51:12;;;;;;;7.10;2.40;;;;;;;15.03;82.39;99792.19;107990;1277;71274;-83
2022/09/15 07:53:39;;;;;;;4.10;1.80;;;;;;;15.06;82.32;99794.85;107678;1280;75583;-83
2022/09/15 07:56:06;;;;;;;7.90;2.00;;;;;;;15.12;82.26;99796.97;108208;1276;62723;-84
2022/09/15 07:58:34;;;;;;;6.40;1.90;;;;;;;15.18;81.49;99799.11;108078;1277;61798;-83
2022/09/15 08:01:05;;;;;;;5.50;1.80;;;;;;;15.17;80.31;99800.02;108050;1277;76329;-83
2022/09/15 08:03:32;;;;;;;5.20;1.80;;;;;;;15.14;79.88;99806.35;108282;1277;72504;-81
2022/09/15 08:06:04;;;;;;;8.20;1.70;;;;;;;15.19;79.86;99803.69;108269;1277;74133;-82
2022/09/15 08:08:31;;;;;;;4.20;1.80;;;;;;;15.22;79.26;99811.09;108003;1277;63659;-83
2022/09/15 08:10:58;;;;;;;5.20;1.70;;;;;;;15.29;79.49;99810.38;108267;1276;60434;-83
2022/09/15 08:13:25;;;;;;;5.80;1.60;;;;;;;15.35;78.77;99808.48;108344;1276;74702;-83
2022/09/15 08:15:52;;;;;;;6.60;1.40;;;;;;;15.39;77.86;99810.39;107801;1278;71678;-82
2022/09/15 08:18:19;;;;;;;4.20;1.50;;;;;;;15.39;77.52;99810.52;107971;1278;74489;-82
2022/09/15 08:20:46;;;;;;;5.00;1.30;;;;;;;15.40;76.89;99817.04;107992;1277;63651;-83
2022/09/15 08:23:13;;;;;;;3.50;1.00;;;;;;;15.43;76.96;99817.20;108021;1277;60392;-82
2022/09/15 08:25:40;;;;;;;3.60;1.10;;;;;;;15.46;76.25;99817.91;108033;1277;75264;-83
2022/09/15 08:28:07;;;;;;;4.70;1.10;;;;;;;15.47;75.99;99817.46;108073;1277;70377;-82
2022/09/15 08:30:34;;;;;;;2.20;1.00;;;;;;;15.59;75.90;99818.08;107837;1278;72685;-82
2022/09/15 08:33:01;;;;;;;4.50;1.40;;;;;;;15.64;74.86;99822.96;107784;1277;63012;-82
2022/09/15 08:35:30;;;;;;;6.50;1.30;;;;;;;15.78;74.82;99828.50;107924;1278;59815;-82
2022/09/15 08:37:56;;;;;;;4.40;1.20;;;;;;;15.91;73.92;99833.64;107911;1277;74761;-82
2022/09/15 08:40:31;;;;;;;3.50;1.10;;;;;;;16.07;73.30;99829.67;107988;1277;72332;-83
2022/09/15 08:43:05;;;;;;;4.50;1.50;;;;;;;16.15;72.03;99829.06;108037;1277;72998;-83
2022/09/15 08:45:45;;;;;;;6.90;1.10;;;;;;;16.31;71.35;99832.21;108183;1276;62160;-82
2022/09/15 08:48:15;;;;;;;3.40;0.80;;;;;;;16.49;71.15;99831.74;108242;1276;60578;-83
2022/09/15 08:50:46;;;;;;;3.80;0.90;;;;;;;16.59;70.19;99833.22;108274;1277;74672;-83
2022/09/15 08:53:18;;;;;;;2.60;1.00;;;;;;;16.63;69.19;99832.88;108234;1276;71541;-82
2022/09/15 08:55:54;;;;;;;3.60;0.90;;;;;;;16.66;69.07;99832.91;107981;1277;72731;-82
2022/09/15 08:58:27;;;;;;;3.10;0.90;;;;;;;16.69;69.23;99832.96;108220;1275;61227;-82
2022/09/15 09:01:35;;;;;;;7.20;1.50;;;;;;;16.73;68.56;99831.05;108071;1277;61391;-82
2022/09/15 09:04:07;;;;;;;4.20;0.80;;;;;;;16.83;68.52;99828.78;107288;1284;75481;-82
2022/09/15 09:06:52;;;;;;;3.70;0.80;;;;;;;16.90;68.51;99834.33;107291;1284;72206;-81
2022/09/15 09:09:40;;;;;;;6.20;1.00;;;;;;;16.88;68.09;99840.07;107800;1277;72755;-82
2022/09/15 09:12:28;;;;;;;5.80;1.10;;;;;;;16.95;68.49;99835.11;108111;1277;61983;-82
2022/09/15 09:15:10;;;;;;;4.70;1.20;;;;;;;17.05;67.89;99832.35;108271;1277;59385;-82
2022/09/15 09:17:51;;;;;;;3.20;0.80;;;;;;;17.01;67.44;99831.48;108042;1277;74680;-82
2022/09/15 09:20:23;;;;;;;3.40;0.90;;;;;;;17.00;67.61;99834.98;108316;1276;72367;-82
2022/09/15 09:22:52;;;;;;;5.80;1.00;;;;;;;17.02;67.55;99827.48;108086;1278;71811;-82
2022/09/15 09:25:20;;;;;;;5.00;1.00;;;;;;;17.10;66.70;99834.21;107773;1277;63557;-82
2022/09/15 09:27:56;;;;;;;4.60;1.10;;;;;;;17.16;66.44;99824.20;108035;1277;60370;-82
2022/09/15 09:30:26;;;;;;;4.60;1.00;;;;;;;17.12;65.21;99827.38;107673;1278;74953;-82
2022/09/15 09:32:59;;;;;;;3.40;0.90;;;;;;;17.04;65.43;99823.77;107753;1278;71858;-82
2022/09/15 09:35:35;;;;;;;3.90;1.00;;;;;;;17.06;65.50;99827.60;107917;1277;72332;-82
2022/09/15 09:38:01;;;;;;;3.30;0.90;;;;;;;17.27;65.36;99831.95;108159;1276;61654;-82
2022/09/15 09:40:30;;;;;;;5.10;1.30;;;;;;;17.49;63.68;99838.48;108005;1277;59821;-82
2022/09/15 09:42:58;;;;;;;5.20;1.10;;;;;;;17.76;63.41;99831.70;108028;1277;74908;-82
2022/09/15 09:45:25;;;;;;;4.90;1.10;;;;;;;17.99;63.13;99827.73;108261;1277;72607;-81
2022/09/15 09:47:54;;;;;;;3.30;0.90;;;;;;;18.04;62.12;99819.76;107941;1277;73759;-82
2022/09/15 09:50:38;;;;;;;4.10;1.10;;;;;;;18.06;61.54;99818.55;108101;1277;61997;-82
2022/09/15 09:53:32;;;;;;;2.80;0.80;;;;;;;18.09;61.61;99816.38;107771;1277;59984;-83
2022/09/15 09:56:14;;;;;;;2.80;0.60;;;;;;;18.14;61.46;99817.33;108099;1277;74716;-82
2022/09/15 09:58:40;;;;;;;5.80;0.90;;;;;;;18.22;61.16;99818.71;108349;1277;73034;-82
2022/09/15 10:01:12;;;;;;;6.00;0.90;;;;;;;18.32;60.66;99813.66;108304;1277;72266;-82
2022/09/15 10:03:40;;;;;;;4.20;0.70;;;;;;;18.41;58.83;99813.56;108337;1276;63508;-81
2022/09/15 10:06:14;;;;;;;3.80;1.00;;;;;;;18.50;58.47;99823.40;108095;1278;60350;-84
2022/09/15 10:08:58;;;;;;;4.10;0.80;;;;;;;18.50;58.77;99819.87;108333;1277;74652;-83
2022/09/15 10:11:45;;;;;;;5.60;0.90;;;;;;;18.63;58.95;99815.56;108089;1278;68960;-82
2022/09/15 10:14:27;;;;;;;3.20;0.80;;;;;;;18.83;58.39;99817.13;108185;1277;72953;-85
2022/09/15 10:17:16;;;;;;;3.60;0.90;;;;;;;18.77;57.50;99808.81;108137;1277;59819;-80
2022/09/15 10:19:49;;;;;;;4.90;0.90;;;;;;;18.75;56.92;99803.58;108116;1277;61494;-82
2022/09/15 10:22:25;;;;;;;4.20;0.80;;;;;;;18.94;56.55;99802.14;107864;1279;76391;-82
2022/09/15 10:24:53;;;;;;;4.80;0.80;;;;;;;19.25;55.80;99803.49;108255;1276;71189;-80
2022/09/15 10:27:25;;;;;;;3.40;0.80;;;;;;;19.29;54.79;99810.58;108274;1277;73744;-82
2022/09/15 10:29:53;;;;;;;5.50;0.90;;;;;;;19.33;54.32;99808.95;107982;1277;60681;-82
2022/09/15 10:32:30;;;;;;;5.20;0.90;;;;;;;19.35;54.63;99803.59;108054;1277;60317;-82
2022/09/15 10:35:18;;;;;;;5.60;1.20;;;;;;;19.34;53.88;99800.94;108003;1276;76138;-82
2022/09/15 10:37:58;;;;;;;3.50;0.70;;;;;;;19.35;54.16;99798.48;108058;1277;70860;-83
2022/09/15 10:40:39;;;;;;;3.20;0.80;;;;;;;19.41;54.22;99800.10;107932;1277;72021;-83
2022/09/15 10:43:39;;;;;;;4.30;0.80;;;;;;;19.10;53.23;99800.23;107870;1279;60663;-82
2022/09/15 10:46:22;;;;;;;6.40;0.90;;;;;;;18.97;53.23;99790.41;108065;1276;60496;-81
2022/09/15 10:48:55;;;;;;;3.80;0.70;;;;;;;18.88;53.03;99791.77;108114;1277;75201;-82
2022/09/15 10:51:32;;;;;;;3.80;0.60;;;;;;;18.85;53.08;99793.81;108010;1276;72462;-82
2022/09/15 10:54:14;;;;;;;5.60;0.90;;;;;;;18.65;52.76;99792.11;108130;1277;74099;-83
2022/09/15 10:56:45;;;;;;;5.80;0.80;;;;;;;18.48;53.40;99802.96;108172;1277;59669;-83
2022/09/15 10:59:46;;;;;;;3.40;0.80;;;;;;;18.34;53.91;99802.25;108048;1275;59701;-83
2022/09/15 11:02:32;;;;;;;3.60;0.80;;;;;;;18.05;54.74;99815.11;108034;1277;75194;-80
2022/09/15 11:05:35;;;;;;;2.80;0.80;;;;;;;17.73;55.16;99815.10;108027;1277;72740;-82
2022/09/15 11:08:21;;;;;;;4.90;0.80;;;;;;;17.53;56.27;99812.36;108199;1277;72506;-81
2022/09/15 11:10:52;;;;;;;6.80;0.90;;;;;;;17.55;56.53;99817.23;108196;1277;59763;-82
2022/09/15 11:13:43;;;;;;;3.10;0.60;;;;;;;17.61;55.69;99819.52;108063;1277;60371;-82
2022/09/15 11:16:24;;;;;;;3.10;0.80;;;;;;;17.76;55.55;99814.16;107979;1278;75976;-81
2022/09/15 11:18:54;;;;;;;4.50;0.80;;;;;;;17.98;55.12;99805.27;108193;1277;71320;-83
2022/09/15 11:21:24;;;;;;;3.50;0.70;;;;;;;18.13;54.37;99807.16;107905;1277;73813;-84
2022/09/15 11:24:12;;;;;;;2.60;0.70;;;;;;;18.31;54.38;99805.80;108007;1276;60614;-83
2022/09/15 11:26:45;;;;;;;3.10;0.80;;;;;;;18.32;54.79;99810.21;107972;1277;62022;-83
2022/09/15 11:29:22;;;;;;;4.60;0.90;;;;;;;18.19;54.64;99817.77;108223;1277;76665;-83
2022/09/15 11:31:55;;;;;;;4.00;0.80;;;;;;;18.11;54.68;99810.84;108006;1277;70746;-83
2022/09/15 11:34:29;;;;;;;4.60;1.00;;;;;;;18.06;54.47;99810.87;108045;1277;72669;-83
2022/09/15 11:37:25;;;;;;;3.70;0.90;;;;;;;18.18;53.88;99812.55;107991;1277;60678;-83
2022/09/15 11:40:00;;;;;;;6.00;1.00;;;;;;;18.56;53.02;99813.27;108098;1277;61249;-82
2022/09/15 11:42:59;;;;;;;4.30;0.90;;;;;;;18.84;52.35;99813.52;107955;1277;74605;-83
2022/09/15 11:45:33;;;;;;;5.00;0.90;;;;;;;19.31;49.87;99816.94;108045;1277;72687;-82